createdAt,value
2018-10-16T00:00:17.510Z,0.00
2018-10-16T00:01:17.679Z,0.00
2018-10-16T00:02:17.859Z,0.00
2018-10-16T00:03:18.050Z,0.00
2018-10-16T00:04:18.203Z,0.00
2018-10-16T00:05:18.376Z,0.00
2018-10-16T00:06:18.561Z,0.00
2018-10-16T00:07:18.734Z,0.00
2018-10-16T00:08:18.913Z,0.00
2018-10-16T00:09:19.080Z,0.00
2018-10-16T00:10:19.254Z,0.00
2018-10-16T00:11:19.423Z,0.00
2018-10-16T00:12:19.595Z,0.00
2018-10-16T00:13:19.773Z,0.00
2018-10-16T00:14:19.945Z,0.00
2018-10-16T00:15:20.122Z,0.00
2018-10-16T00:16:20.289Z,0.00
2018-10-16T00:17:20.462Z,0.00
2018-10-16T00:18:20.638Z,0.00
2018-10-16T00:19:20.805Z,0.00
2018-10-16T00:20:20.976Z,0.00
2018-10-16T00:21:21.150Z,0.00
2018-10-16T00:22:21.322Z,0.00
2018-10-16T00:23:21.492Z,0.00
2018-10-16T00:24:21.668Z,0.00
2018-10-16T00:25:21.837Z,0.00
2018-10-16T00:26:22.004Z,0.00
2018-10-16T00:27:22.181Z,0.00
2018-10-16T00:28:22.356Z,0.00
2018-10-16T00:29:22.533Z,0.00
2018-10-16T00:30:22.702Z,0.00
2018-10-16T00:31:22.878Z,0.00
2018-10-16T00:32:23.054Z,0.00
2018-10-16T00:33:23.223Z,0.00
2018-10-16T00:34:23.395Z,0.00
2018-10-16T00:35:23.574Z,0.00
2018-10-16T00:36:23.744Z,0.00
2018-10-16T00:37:23.911Z,0.00
2018-10-16T00:38:24.089Z,0.00
2018-10-16T00:39:24.260Z,0.00
2018-10-16T00:40:24.444Z,0.00
2018-10-16T00:41:24.612Z,0.00
2018-10-16T00:42:24.788Z,0.00
2018-10-16T00:43:24.950Z,0.00
2018-10-16T00:44:25.124Z,0.00
2018-10-16T00:45:25.303Z,0.00
2018-10-16T00:46:25.482Z,0.00
2018-10-16T00:47:25.655Z,0.00
2018-10-16T00:48:25.822Z,0.00
2018-10-16T00:49:25.994Z,0.00
2018-10-16T00:50:26.159Z,0.00
2018-10-16T00:51:26.336Z,0.00
2018-10-16T00:52:26.508Z,0.00
2018-10-16T00:53:26.683Z,0.00
2018-10-16T00:54:26.855Z,0.00
2018-10-16T00:55:27.025Z,0.00
2018-10-16T00:56:27.203Z,0.00
2018-10-16T00:57:27.664Z,0.00
2018-10-16T00:58:27.609Z,0.00
2018-10-16T00:59:27.775Z,0.00
2018-10-16T01:00:27.943Z,0.00
2018-10-16T01:01:28.120Z,0.00
2018-10-16T01:02:28.287Z,0.00
2018-10-16T01:03:28.461Z,0.00
2018-10-16T01:04:28.628Z,0.00
2018-10-16T01:05:28.800Z,0.00
2018-10-16T01:06:28.968Z,0.00
2018-10-16T01:07:29.133Z,0.00
2018-10-16T01:08:29.310Z,0.00
2018-10-16T01:09:29.480Z,0.00
2018-10-16T01:10:29.658Z,0.00
2018-10-16T01:11:29.829Z,0.00
2018-10-16T01:12:30.011Z,0.00
2018-10-16T01:13:30.179Z,0.00
2018-10-16T01:14:30.355Z,0.00
2018-10-16T01:15:30.524Z,0.00
2018-10-16T01:16:30.693Z,0.00
2018-10-16T01:17:30.864Z,0.00
2018-10-16T01:18:31.030Z,0.00
2018-10-16T01:19:31.207Z,0.00
2018-10-16T01:20:31.372Z,0.00
2018-10-16T01:21:31.547Z,0.00
2018-10-16T01:22:31.728Z,0.00
2018-10-16T01:23:31.905Z,0.00
2018-10-16T01:24:32.075Z,0.00
2018-10-16T01:25:32.242Z,0.00
2018-10-16T01:26:32.417Z,0.00
2018-10-16T01:27:32.589Z,0.00
2018-10-16T01:28:32.793Z,0.00
2018-10-16T01:29:32.979Z,0.00
2018-10-16T01:30:33.153Z,0.00
2018-10-16T01:31:33.337Z,0.00
2018-10-16T01:32:33.510Z,0.00
2018-10-16T01:33:33.677Z,0.00
2018-10-16T01:34:33.842Z,0.00
2018-10-16T01:35:34.020Z,0.00
2018-10-16T01:36:34.197Z,0.00
2018-10-16T01:37:34.370Z,0.00
2018-10-16T01:38:34.541Z,0.00
2018-10-16T01:39:34.720Z,0.00
2018-10-16T01:40:34.889Z,0.00
2018-10-16T01:41:35.054Z,0.00
2018-10-16T01:42:35.230Z,0.00
2018-10-16T01:43:35.402Z,0.00
2018-10-16T01:44:35.571Z,0.00
2018-10-16T01:45:35.751Z,0.00
2018-10-16T01:46:35.926Z,0.00
2018-10-16T01:47:36.090Z,0.00
2018-10-16T01:48:36.308Z,0.00
2018-10-16T01:49:36.449Z,0.00
2018-10-16T01:50:36.620Z,0.00
2018-10-16T01:51:36.789Z,0.00
2018-10-16T01:52:36.960Z,0.00
2018-10-16T01:53:37.142Z,0.00
2018-10-16T01:54:37.308Z,0.00
2018-10-16T01:55:37.484Z,0.00
2018-10-16T01:56:37.655Z,0.00
2018-10-16T01:57:37.830Z,0.00
2018-10-16T01:58:38.006Z,0.00
2018-10-16T01:59:38.434Z,0.00
2018-10-16T02:00:38.653Z,0.00
2018-10-16T02:01:38.700Z,0.00
2018-10-16T02:02:38.944Z,0.00
2018-10-16T02:03:38.866Z,0.00
2018-10-16T02:04:39.392Z,0.00
2018-10-16T02:05:39.177Z,0.00
2018-10-16T02:06:39.340Z,0.00
2018-10-16T02:07:39.515Z,0.00
2018-10-16T02:08:39.695Z,0.00
2018-10-16T02:09:39.861Z,0.00
2018-10-16T02:10:40.030Z,0.00
2018-10-16T02:11:40.196Z,0.00
2018-10-16T02:12:40.361Z,0.00
2018-10-16T02:13:40.534Z,0.00
2018-10-16T02:14:40.739Z,0.00
2018-10-16T02:15:40.908Z,0.00
2018-10-16T02:16:41.074Z,0.00
2018-10-16T02:17:41.243Z,0.00
2018-10-16T02:18:41.415Z,0.00
2018-10-16T02:19:41.582Z,0.00
2018-10-16T02:20:41.751Z,0.00
2018-10-16T02:21:41.921Z,0.00
2018-10-16T02:22:42.088Z,0.00
2018-10-16T02:23:42.263Z,0.00
2018-10-16T02:24:42.444Z,0.00
2018-10-16T02:25:42.623Z,0.00
2018-10-16T02:26:42.797Z,0.00
2018-10-16T02:27:42.980Z,0.00
2018-10-16T02:28:43.141Z,0.00
2018-10-16T02:29:43.313Z,0.00
2018-10-16T02:30:43.483Z,0.00
2018-10-16T02:31:43.653Z,0.00
2018-10-16T02:32:43.826Z,0.00
2018-10-16T02:33:43.997Z,0.00
2018-10-16T02:34:44.169Z,0.00
2018-10-16T02:35:44.340Z,0.00
2018-10-16T02:36:44.512Z,0.00
2018-10-16T02:37:44.680Z,0.00
2018-10-16T02:38:44.855Z,0.00
2018-10-16T02:39:45.037Z,0.00
2018-10-16T02:40:45.939Z,0.00
2018-10-16T02:41:45.323Z,0.00
2018-10-16T02:42:45.484Z,0.00
2018-10-16T02:43:45.647Z,0.00
2018-10-16T02:44:45.817Z,0.00
2018-10-16T02:45:45.985Z,0.00
2018-10-16T02:46:46.169Z,0.00
2018-10-16T02:47:46.331Z,0.00
2018-10-16T02:48:46.503Z,0.00
2018-10-16T02:49:46.675Z,0.00
2018-10-16T02:50:46.855Z,0.00
2018-10-16T02:51:47.023Z,0.00
2018-10-16T02:52:47.189Z,0.00
2018-10-16T02:54:08.367Z,0.00
2018-10-16T02:54:47.516Z,0.00
2018-10-16T02:55:47.691Z,0.00
2018-10-16T02:56:47.858Z,0.00
2018-10-16T02:57:48.038Z,0.00
2018-10-16T02:58:48.207Z,0.00
2018-10-16T02:59:48.380Z,0.00
2018-10-16T03:00:51.699Z,0.00
2018-10-16T03:01:51.711Z,0.00
2018-10-16T03:02:52.113Z,0.00
2018-10-16T03:03:54.551Z,0.00
2018-10-16T03:04:49.165Z,0.00
2018-10-16T03:05:49.344Z,0.00
2018-10-16T03:06:49.516Z,0.00
2018-10-16T03:07:49.698Z,0.00
2018-10-16T03:08:49.865Z,0.00
2018-10-16T03:09:50.033Z,0.00
2018-10-16T03:10:50.202Z,0.00
2018-10-16T03:11:50.376Z,0.00
2018-10-16T03:12:50.554Z,0.00
2018-10-16T03:13:50.724Z,0.00
2018-10-16T03:14:50.903Z,0.00
2018-10-16T03:15:51.076Z,0.00
2018-10-16T03:16:51.246Z,0.00
2018-10-16T03:17:51.419Z,0.00
2018-10-16T03:18:51.584Z,0.00
2018-10-16T03:19:51.755Z,0.00
2018-10-16T03:20:51.927Z,0.00
2018-10-16T03:21:52.105Z,0.00
2018-10-16T03:22:52.279Z,0.00
2018-10-16T03:23:52.453Z,0.00
2018-10-16T03:24:52.628Z,0.00
2018-10-16T03:25:52.801Z,0.00
2018-10-16T03:26:52.965Z,0.00
2018-10-16T03:27:53.141Z,0.00
2018-10-16T03:28:53.320Z,0.00
2018-10-16T03:29:53.494Z,0.00
2018-10-16T03:30:53.667Z,0.00
2018-10-16T03:31:53.837Z,0.00
2018-10-16T03:32:54.015Z,0.00
2018-10-16T03:33:54.190Z,0.00
2018-10-16T03:34:54.369Z,0.00
2018-10-16T03:35:54.540Z,0.00
2018-10-16T03:36:54.711Z,0.00
2018-10-16T03:37:54.877Z,0.00
2018-10-16T03:38:55.044Z,0.00
2018-10-16T03:39:55.217Z,0.00
2018-10-16T03:40:55.387Z,0.00
2018-10-16T03:41:55.572Z,0.00
2018-10-16T03:42:55.741Z,0.00
2018-10-16T03:43:55.910Z,0.00
2018-10-16T03:44:56.081Z,0.00
2018-10-16T03:45:56.255Z,0.00
2018-10-16T03:46:56.424Z,0.00
2018-10-16T03:47:56.591Z,0.00
2018-10-16T03:48:56.766Z,0.00
2018-10-16T03:49:56.956Z,0.00
2018-10-16T03:50:57.133Z,0.00
2018-10-16T03:51:57.310Z,0.00
2018-10-16T03:52:57.823Z,0.00
2018-10-16T03:53:57.633Z,0.00
2018-10-16T03:54:57.804Z,0.00
2018-10-16T03:55:57.969Z,0.00
2018-10-16T03:56:58.179Z,0.00
2018-10-16T03:57:58.357Z,0.00
2018-10-16T03:58:58.529Z,0.00
2018-10-16T03:59:58.701Z,0.00
2018-10-16T04:00:58.868Z,0.00
2018-10-16T04:01:59.034Z,0.00
2018-10-16T04:02:59.205Z,0.00
2018-10-16T04:03:59.371Z,0.00
2018-10-16T04:04:59.552Z,0.00
2018-10-16T04:05:59.725Z,0.00
2018-10-16T04:06:59.901Z,0.00
2018-10-16T04:08:00.092Z,0.00
2018-10-16T04:09:00.308Z,0.00
2018-10-16T04:10:00.457Z,0.00
2018-10-16T04:11:00.632Z,0.00
2018-10-16T04:12:00.799Z,0.00
2018-10-16T04:13:00.970Z,0.00
2018-10-16T04:14:01.213Z,0.00
2018-10-16T04:15:01.326Z,0.00
2018-10-16T04:16:01.493Z,0.00
2018-10-16T04:17:01.666Z,0.00
2018-10-16T04:18:01.833Z,0.00
2018-10-16T04:19:02.015Z,0.00
2018-10-16T04:20:02.178Z,0.00
2018-10-16T04:21:02.369Z,0.00
2018-10-16T04:22:02.544Z,0.00
2018-10-16T04:23:02.830Z,0.00
2018-10-16T04:24:02.908Z,0.00
2018-10-16T04:25:03.085Z,0.00
2018-10-16T04:26:03.257Z,0.00
2018-10-16T04:27:03.477Z,0.00
2018-10-16T04:28:03.540Z,0.00
2018-10-16T04:29:03.733Z,0.00
2018-10-16T04:30:03.888Z,0.00
2018-10-16T04:31:04.060Z,0.00
2018-10-16T04:32:04.232Z,0.00
2018-10-16T04:33:04.399Z,0.00
2018-10-16T04:34:04.576Z,0.00
2018-10-16T04:35:06.584Z,0.00
2018-10-16T04:36:04.883Z,0.00
2018-10-16T04:37:06.903Z,0.00
2018-10-16T04:38:07.111Z,0.00
2018-10-16T04:39:06.791Z,0.00
2018-10-16T04:40:09.025Z,0.00
2018-10-16T04:41:08.477Z,0.00
2018-10-16T04:42:08.677Z,0.00
2018-10-16T04:43:08.436Z,0.00
2018-10-16T04:44:08.280Z,0.00
2018-10-16T04:45:06.239Z,0.00
2018-10-16T04:46:06.444Z,0.00
2018-10-16T04:47:06.587Z,0.00
2018-10-16T04:48:06.893Z,0.00
2018-10-16T04:49:06.880Z,0.00
2018-10-16T04:50:07.069Z,0.00
2018-10-16T04:51:07.238Z,0.00
2018-10-16T04:52:07.420Z,0.00
2018-10-16T04:53:07.599Z,0.00
2018-10-16T04:54:07.759Z,0.00
2018-10-16T04:55:07.970Z,0.00
2018-10-16T04:56:08.105Z,0.00
2018-10-16T04:57:08.284Z,0.00
2018-10-16T04:58:08.457Z,0.00
2018-10-16T04:59:08.809Z,0.00
2018-10-16T05:00:08.732Z,0.00
2018-10-16T05:01:08.971Z,0.00
2018-10-16T05:02:11.644Z,0.00
2018-10-16T05:03:09.585Z,0.00
2018-10-16T05:04:09.335Z,0.00
2018-10-16T05:05:09.448Z,0.00
2018-10-16T05:06:09.613Z,0.00
2018-10-16T05:07:09.859Z,0.00
2018-10-16T05:08:09.917Z,0.00
2018-10-16T05:09:10.090Z,0.00
2018-10-16T05:10:10.268Z,0.00
2018-10-16T05:11:10.433Z,0.00
2018-10-16T05:12:10.630Z,0.00
2018-10-16T05:13:10.825Z,0.00
2018-10-16T05:14:10.981Z,0.00
2018-10-16T05:15:11.157Z,0.00
2018-10-16T05:16:11.327Z,0.00
2018-10-16T05:17:11.504Z,0.00
2018-10-16T05:18:11.680Z,4.00
2018-10-16T05:19:11.945Z,4.00
2018-10-16T05:20:12.030Z,0.00
2018-10-16T05:21:12.203Z,4.00
2018-10-16T05:22:12.385Z,4.00
2018-10-16T05:23:12.563Z,4.00
2018-10-16T05:24:12.734Z,8.00
2018-10-16T05:25:12.910Z,8.00
2018-10-16T05:26:13.092Z,8.00
2018-10-16T05:27:13.279Z,12.00
2018-10-16T05:28:13.441Z,12.00
2018-10-16T05:29:13.613Z,16.00
2018-10-16T05:30:13.782Z,20.00
2018-10-16T05:31:14.050Z,20.00
2018-10-16T05:32:14.255Z,24.00
2018-10-16T05:33:15.113Z,32.00
2018-10-16T05:34:14.527Z,36.00
2018-10-16T05:35:14.701Z,40.00
2018-10-16T05:36:14.883Z,44.00
2018-10-16T05:37:15.050Z,52.00
2018-10-16T05:38:15.271Z,56.00
2018-10-16T05:39:15.452Z,64.00
2018-10-16T05:40:15.606Z,72.00
2018-10-16T05:41:15.775Z,76.00
2018-10-16T05:42:15.942Z,88.00
2018-10-16T05:43:16.136Z,96.00
2018-10-16T05:44:16.300Z,104.00
2018-10-16T05:45:16.479Z,112.00
2018-10-16T05:46:16.652Z,120.00
2018-10-16T05:47:16.828Z,132.00
2018-10-16T05:48:17.050Z,144.00
2018-10-16T05:49:17.176Z,156.00
2018-10-16T05:50:17.406Z,172.00
2018-10-16T05:51:17.465Z,184.00
2018-10-16T05:52:17.636Z,200.00
2018-10-16T05:53:17.808Z,220.00
2018-10-16T05:54:17.998Z,240.00
2018-10-16T05:55:18.162Z,264.00
2018-10-16T05:56:18.334Z,288.00
2018-10-16T05:57:19.813Z,316.00
2018-10-16T05:58:20.166Z,352.00
2018-10-16T05:59:21.759Z,392.00
2018-10-16T06:00:18.893Z,432.00
2018-10-16T06:01:19.066Z,472.00
2018-10-16T06:02:19.255Z,508.00
2018-10-16T06:03:19.550Z,548.00
2018-10-16T06:04:19.610Z,588.00
2018-10-16T06:05:19.783Z,628.00
2018-10-16T06:06:19.957Z,668.00
2018-10-16T06:07:20.150Z,716.00
2018-10-16T06:08:20.342Z,764.00
2018-10-16T06:09:20.534Z,808.00
2018-10-16T06:10:20.721Z,856.00
2018-10-16T06:11:20.942Z,912.00
2018-10-16T06:12:21.079Z,976.00
2018-10-16T06:13:21.427Z,1028.00
2018-10-16T06:14:21.529Z,1056.00
2018-10-16T06:15:21.545Z,1080.00
2018-10-16T06:16:21.713Z,1100.00
2018-10-16T06:17:21.907Z,1112.00
2018-10-16T06:18:22.099Z,1136.00
2018-10-16T06:19:22.268Z,1172.00
2018-10-16T06:20:22.443Z,1208.00
2018-10-16T06:21:22.624Z,1248.00
2018-10-16T06:22:22.837Z,1276.00
2018-10-16T06:23:22.901Z,1304.00
2018-10-16T06:24:23.134Z,1352.00
2018-10-16T06:25:23.272Z,1420.00
2018-10-16T06:26:23.486Z,1480.00
2018-10-16T06:27:23.614Z,1576.00
2018-10-16T06:28:23.892Z,1680.00
2018-10-16T06:29:23.938Z,1788.00
2018-10-16T06:30:24.258Z,1880.00
2018-10-16T06:31:24.307Z,1960.00
2018-10-16T06:32:24.492Z,2036.00
2018-10-16T06:33:25.357Z,2108.00
2018-10-16T06:34:24.785Z,2164.00
2018-10-16T06:35:24.956Z,2200.00
2018-10-16T06:36:25.124Z,2276.00
2018-10-16T06:37:25.301Z,2380.00
2018-10-16T06:38:25.489Z,2488.00
2018-10-16T06:39:25.671Z,2596.00
2018-10-16T06:40:25.862Z,2716.00
2018-10-16T06:41:26.018Z,2832.00
2018-10-16T06:42:26.178Z,2920.00
2018-10-16T06:43:26.344Z,3016.00
2018-10-16T06:44:26.520Z,3136.00
2018-10-16T06:45:26.691Z,3232.00
2018-10-16T06:46:26.897Z,3344.00
2018-10-16T06:47:27.203Z,3464.00
2018-10-16T06:48:27.383Z,3548.00
2018-10-16T06:49:27.411Z,3564.00
2018-10-16T06:50:27.587Z,3612.00
2018-10-16T06:51:27.763Z,3640.00
2018-10-16T06:52:27.935Z,3648.00
2018-10-16T06:53:28.185Z,3648.00
2018-10-16T06:54:28.307Z,4708.00
2018-10-16T06:55:28.455Z,6152.00
2018-10-16T06:56:28.610Z,5440.00
2018-10-16T06:57:28.778Z,4280.00
2018-10-16T06:58:28.957Z,3804.00
2018-10-16T06:59:29.116Z,4620.00
2018-10-16T07:00:29.290Z,5512.00
2018-10-16T07:01:29.456Z,6008.00
2018-10-16T07:02:29.626Z,6532.00
2018-10-16T07:03:29.801Z,6116.00
2018-10-16T07:04:29.971Z,5616.00
2018-10-16T07:05:30.144Z,6372.00
2018-10-16T07:06:30.368Z,8024.00
2018-10-16T07:07:30.494Z,7804.00
2018-10-16T07:08:30.667Z,5452.00
2018-10-16T07:09:30.840Z,7412.00
2018-10-16T07:10:31.026Z,7156.00
2018-10-16T07:11:31.207Z,5620.00
2018-10-16T07:12:31.382Z,5324.00
2018-10-16T07:13:31.553Z,4992.00
2018-10-16T07:14:31.724Z,4816.00
2018-10-16T07:15:35.042Z,4488.00
2018-10-16T07:16:32.108Z,4500.00
2018-10-16T07:17:33.591Z,4552.00
2018-10-16T07:18:32.665Z,4524.00
2018-10-16T07:19:34.310Z,4832.00
2018-10-16T07:20:34.556Z,5740.00
2018-10-16T07:21:33.112Z,6980.00
2018-10-16T07:22:34.404Z,8448.00
2018-10-16T07:23:34.434Z,8416.00
2018-10-16T07:24:33.777Z,8224.00
2018-10-16T07:25:34.225Z,8872.00
2018-10-16T07:26:34.251Z,8680.00
2018-10-16T07:27:34.924Z,7744.00
2018-10-16T07:28:34.542Z,7696.00
2018-10-16T07:29:35.544Z,7140.00
2018-10-16T07:30:35.292Z,6636.00
2018-10-16T07:31:34.611Z,6256.00
2018-10-16T07:32:35.682Z,5888.00
2018-10-16T07:33:34.853Z,5792.00
2018-10-16T07:34:36.312Z,5876.00
2018-10-16T07:35:35.928Z,6056.00
2018-10-16T07:36:35.423Z,6316.00
2018-10-16T07:37:35.652Z,6436.00
2018-10-16T07:38:37.143Z,6276.00
2018-10-16T07:39:36.298Z,6104.00
2018-10-16T07:40:38.429Z,6044.00
2018-10-16T07:41:36.112Z,5564.00
2018-10-16T07:42:36.289Z,5076.00
2018-10-16T07:43:36.488Z,5148.00
2018-10-16T07:44:37.145Z,5096.00
2018-10-16T07:45:36.837Z,5020.00
2018-10-16T07:46:37.034Z,5012.00
2018-10-16T07:47:37.238Z,4520.00
2018-10-16T07:48:37.440Z,4200.00
2018-10-16T07:49:37.605Z,3976.00
2018-10-16T07:50:37.778Z,3696.00
2018-10-16T07:51:37.963Z,3680.00
2018-10-16T07:52:38.144Z,3724.00
2018-10-16T07:53:38.566Z,3796.00
2018-10-16T07:54:38.781Z,3892.00
2018-10-16T07:55:38.776Z,3908.00
2018-10-16T07:56:38.950Z,3864.00
2018-10-16T07:57:39.155Z,3784.00
2018-10-16T07:58:39.315Z,3696.00
2018-10-16T07:59:39.488Z,3612.00
2018-10-16T08:00:39.662Z,3572.00
2018-10-16T08:01:39.835Z,3576.00
2018-10-16T08:02:40.003Z,3616.00
2018-10-16T08:03:40.177Z,3704.00
2018-10-16T08:04:40.353Z,3828.00
2018-10-16T08:05:40.519Z,3980.00
2018-10-16T08:06:40.690Z,4140.00
2018-10-16T08:07:40.892Z,4300.00
2018-10-16T08:08:41.075Z,4436.00
2018-10-16T08:09:41.738Z,4548.00
2018-10-16T08:10:42.051Z,4632.00
2018-10-16T08:11:41.564Z,4692.00
2018-10-16T08:12:41.742Z,4700.00
2018-10-16T08:13:41.913Z,4680.00
2018-10-16T08:14:42.122Z,4652.00
2018-10-16T08:15:42.299Z,4616.00
2018-10-16T08:16:42.508Z,4560.00
2018-10-16T08:17:42.684Z,4488.00
2018-10-16T08:18:42.993Z,4396.00
2018-10-16T08:19:43.065Z,4288.00
2018-10-16T08:20:43.272Z,4184.00
2018-10-16T08:21:43.460Z,4104.00
2018-10-16T08:22:43.629Z,4004.00
2018-10-16T08:23:44.135Z,3876.00
2018-10-16T08:24:46.278Z,3748.00
2018-10-16T08:25:44.095Z,3660.00
2018-10-16T08:26:45.755Z,3616.00
2018-10-16T08:27:45.729Z,3620.00
2018-10-16T08:28:46.017Z,3660.00
2018-10-16T08:29:45.526Z,3704.00
2018-10-16T08:30:45.722Z,3732.00
2018-10-16T08:31:47.933Z,3724.00
2018-10-16T08:32:47.674Z,3696.00
2018-10-16T08:33:46.932Z,3624.00
2018-10-16T08:34:47.171Z,3548.00
2018-10-16T08:35:47.494Z,3484.00
2018-10-16T08:36:48.009Z,3468.00
2018-10-16T08:37:47.159Z,3484.00
2018-10-16T08:38:48.457Z,3528.00
2018-10-16T08:39:49.243Z,3600.00
2018-10-16T08:40:49.559Z,3668.00
2018-10-16T08:41:48.927Z,3736.00
2018-10-16T08:42:46.805Z,3820.00
2018-10-16T08:43:47.810Z,3920.00
2018-10-16T08:44:48.591Z,4016.00
2018-10-16T08:45:49.072Z,4132.00
2018-10-16T08:46:47.588Z,4264.00
2018-10-16T08:47:47.805Z,4392.00
2018-10-16T08:48:47.985Z,4528.00
2018-10-16T08:49:48.164Z,4624.00
2018-10-16T08:50:48.336Z,4720.00
2018-10-16T08:51:48.515Z,4824.00
2018-10-16T08:52:48.698Z,4928.00
2018-10-16T08:53:48.878Z,5040.00
2018-10-16T08:54:49.130Z,5160.00
2018-10-16T08:55:49.270Z,5256.00
2018-10-16T08:56:49.445Z,5384.00
2018-10-16T08:57:49.614Z,5512.00
2018-10-16T08:58:49.787Z,5624.00
2018-10-16T08:59:49.971Z,5744.00
2018-10-16T09:00:50.145Z,5852.00
2018-10-16T09:01:50.317Z,5916.00
2018-10-16T09:02:50.490Z,5976.00
2018-10-16T09:03:50.671Z,6024.00
2018-10-16T09:04:50.848Z,6040.00
2018-10-16T09:05:51.023Z,6048.00
2018-10-16T09:06:51.303Z,6036.00
2018-10-16T09:07:51.568Z,6092.00
2018-10-16T09:08:51.823Z,6252.00
2018-10-16T09:09:51.820Z,6212.00
2018-10-16T09:10:51.979Z,6224.00
2018-10-16T09:11:52.132Z,6336.00
2018-10-16T09:12:52.279Z,6528.00
2018-10-16T09:13:52.412Z,6672.00
2018-10-16T09:14:52.415Z,6828.00
2018-10-16T09:15:52.591Z,6864.00
2018-10-16T09:16:52.911Z,6980.00
2018-10-16T09:17:52.976Z,7320.00
2018-10-16T09:18:53.147Z,7608.00
2018-10-16T09:19:53.338Z,7872.00
2018-10-16T09:20:53.507Z,8360.00
2018-10-16T09:21:53.684Z,8220.00
2018-10-16T09:22:53.853Z,8200.00
2018-10-16T09:23:54.028Z,7480.00
2018-10-16T09:24:54.229Z,7688.00
2018-10-16T09:25:54.380Z,7816.00
2018-10-16T09:26:54.954Z,7880.00
2018-10-16T09:27:57.187Z,7984.00
2018-10-16T09:28:55.012Z,8092.00
2018-10-16T09:29:55.197Z,7880.00
2018-10-16T09:30:55.405Z,7896.00
2018-10-16T09:31:55.553Z,7748.00
2018-10-16T09:32:56.082Z,7216.00
2018-10-16T09:33:55.884Z,7040.00
2018-10-16T09:34:56.049Z,7332.00
2018-10-16T09:35:56.248Z,7236.00
2018-10-16T09:36:56.428Z,7272.00
2018-10-16T09:37:56.978Z,6976.00
2018-10-16T09:38:56.762Z,7068.00
2018-10-16T09:39:56.944Z,7184.00
2018-10-16T09:40:57.124Z,7520.00
2018-10-16T09:41:57.444Z,7792.00
2018-10-16T09:42:57.445Z,7948.00
2018-10-16T09:43:57.681Z,8048.00
2018-10-16T09:44:57.738Z,8296.00
2018-10-16T09:45:58.194Z,8572.00
2018-10-16T09:46:59.885Z,8236.00
2018-10-16T09:47:59.006Z,8072.00
2018-10-16T09:48:59.536Z,8028.00
2018-10-16T09:49:58.718Z,8088.00
2018-10-16T09:50:58.946Z,8180.00
2018-10-16T09:51:59.022Z,8300.00
2018-10-16T09:52:59.260Z,8704.00
2018-10-16T09:53:59.393Z,8712.00
2018-10-16T09:54:59.545Z,8268.00
2018-10-16T09:55:59.694Z,7804.00
2018-10-16T09:56:59.834Z,7316.00
2018-10-16T09:57:59.949Z,7152.00
2018-10-16T09:59:00.039Z,7208.00
2018-10-16T10:00:00.282Z,7360.00
2018-10-16T10:01:01.242Z,7248.00
2018-10-16T10:02:00.529Z,7012.00
2018-10-16T10:03:00.605Z,6968.00
2018-10-16T10:04:00.877Z,6712.00
2018-10-16T10:05:00.962Z,6516.00
2018-10-16T10:06:01.187Z,6556.00
2018-10-16T10:07:01.596Z,6516.00
2018-10-16T10:08:01.465Z,6188.00
2018-10-16T10:09:01.599Z,6032.00
2018-10-16T10:10:01.699Z,5996.00
2018-10-16T10:11:01.849Z,6044.00
2018-10-16T10:12:01.916Z,6048.00
2018-10-16T10:13:02.104Z,6048.00
2018-10-16T10:14:02.232Z,6188.00
2018-10-16T10:15:02.302Z,6420.00
2018-10-16T10:16:02.561Z,6772.00
2018-10-16T10:17:02.669Z,7088.00
2018-10-16T10:18:02.801Z,7664.00
2018-10-16T10:19:02.877Z,8032.00
2018-10-16T10:20:03.125Z,8792.00
2018-10-16T10:21:03.609Z,9072.00
2018-10-16T10:22:03.392Z,9076.00
2018-10-16T10:23:03.480Z,9652.00
2018-10-16T10:24:03.757Z,10928.00
2018-10-16T10:25:03.940Z,18752.00
2018-10-16T10:26:03.990Z,16288.00
2018-10-16T10:27:04.088Z,12556.00
2018-10-16T10:28:04.302Z,12008.00
2018-10-16T10:29:04.547Z,8152.00
2018-10-16T10:30:04.613Z,8676.00
2018-10-16T10:31:05.516Z,9080.00
2018-10-16T10:32:05.491Z,8540.00
2018-10-16T10:33:05.535Z,8960.00
2018-10-16T10:34:05.383Z,9264.00
2018-10-16T10:35:05.594Z,10072.00
2018-10-16T10:36:06.047Z,9884.00
2018-10-16T10:37:06.319Z,10412.00
2018-10-16T10:38:06.129Z,9772.00
2018-10-16T10:39:06.185Z,9048.00
2018-10-16T10:40:06.361Z,9476.00
2018-10-16T10:41:06.567Z,9168.00
2018-10-16T10:42:06.836Z,9468.00
2018-10-16T10:43:07.001Z,10456.00
2018-10-16T10:44:07.254Z,11464.00
2018-10-16T10:45:07.356Z,9784.00
2018-10-16T10:46:07.473Z,10884.00
2018-10-16T10:47:07.591Z,13652.00
2018-10-16T10:48:07.785Z,10916.00
2018-10-16T10:49:07.996Z,11112.00
2018-10-16T10:50:08.290Z,10488.00
2018-10-16T10:51:08.619Z,8880.00
2018-10-16T10:52:08.474Z,10216.00
2018-10-16T10:53:08.596Z,9924.00
2018-10-16T10:54:08.775Z,8944.00
2018-10-16T10:55:09.004Z,11108.00
2018-10-16T10:56:09.249Z,8920.00
2018-10-16T10:57:09.603Z,8516.00
2018-10-16T10:58:09.470Z,8852.00
2018-10-16T10:59:09.701Z,8524.00
2018-10-16T11:00:09.955Z,8612.00
2018-10-16T11:01:10.053Z,8212.00
2018-10-16T11:02:10.170Z,8196.00
2018-10-16T11:03:10.296Z,8040.00
2018-10-16T11:04:10.493Z,7916.00
2018-10-16T11:05:10.573Z,7812.00
2018-10-16T11:06:10.798Z,7696.00
2018-10-16T11:07:10.981Z,7572.00
2018-10-16T11:08:11.098Z,7464.00
2018-10-16T11:09:11.278Z,7324.00
2018-10-16T11:10:11.538Z,7192.00
2018-10-16T11:11:11.564Z,7024.00
2018-10-16T11:12:11.680Z,6896.00
2018-10-16T11:13:11.885Z,6788.00
2018-10-16T11:14:11.994Z,6688.00
2018-10-16T11:15:12.259Z,6632.00
2018-10-16T11:16:12.276Z,6672.00
2018-10-16T11:17:12.391Z,6692.00
2018-10-16T11:18:12.640Z,6788.00
2018-10-16T11:19:12.831Z,6980.00
2018-10-16T11:20:13.098Z,7196.00
2018-10-16T11:21:13.163Z,7420.00
2018-10-16T11:22:13.210Z,7640.00
2018-10-16T11:23:13.421Z,7868.00
2018-10-16T11:24:13.671Z,7836.00
2018-10-16T11:25:13.877Z,8008.00
2018-10-16T11:26:14.080Z,8040.00
2018-10-16T11:27:14.202Z,8628.00
2018-10-16T11:28:14.297Z,9520.00
2018-10-16T11:29:14.372Z,8840.00
2018-10-16T11:30:15.194Z,7988.00
2018-10-16T11:31:16.196Z,8068.00
2018-10-16T11:32:17.359Z,6776.00
2018-10-16T11:33:16.590Z,6344.00
2018-10-16T11:34:17.320Z,6016.00
2018-10-16T11:35:17.128Z,5888.00
2018-10-16T11:36:15.648Z,5784.00
2018-10-16T11:37:15.860Z,5748.00
2018-10-16T11:38:16.160Z,5728.00
2018-10-16T11:39:16.235Z,5712.00
2018-10-16T11:40:16.431Z,5720.00
2018-10-16T11:41:16.624Z,5744.00
2018-10-16T11:42:16.876Z,5792.00
2018-10-16T11:43:16.964Z,5840.00
2018-10-16T11:44:17.257Z,5876.00
2018-10-16T11:45:17.435Z,5888.00
2018-10-16T11:46:17.579Z,5884.00
2018-10-16T11:47:17.735Z,5840.00
2018-10-16T11:48:17.840Z,5776.00
2018-10-16T11:49:18.037Z,5708.00
2018-10-16T11:50:18.232Z,5660.00
2018-10-16T11:51:18.364Z,5584.00
2018-10-16T11:52:18.928Z,5552.00
2018-10-16T11:53:19.189Z,5504.00
2018-10-16T11:54:18.875Z,5532.00
2018-10-16T11:55:19.100Z,5560.00
2018-10-16T11:56:19.171Z,5576.00
2018-10-16T11:57:19.687Z,5576.00
2018-10-16T11:58:19.564Z,5524.00
2018-10-16T11:59:19.850Z,5496.00
2018-10-16T12:00:20.462Z,5436.00
2018-10-16T12:01:20.084Z,5412.00
2018-10-16T12:02:20.223Z,5424.00
2018-10-16T12:03:20.310Z,5500.00
2018-10-16T12:04:20.455Z,5576.00
2018-10-16T12:05:20.674Z,5652.00
2018-10-16T12:06:20.836Z,5652.00
2018-10-16T12:07:21.012Z,5568.00
2018-10-16T12:08:21.168Z,5400.00
2018-10-16T12:09:21.269Z,5268.00
2018-10-16T12:10:21.495Z,5068.00
2018-10-16T12:11:21.668Z,4868.00
2018-10-16T12:12:22.501Z,4696.00
2018-10-16T12:13:21.886Z,4500.00
2018-10-16T12:14:22.219Z,4332.00
2018-10-16T12:15:22.185Z,4184.00
2018-10-16T12:16:22.377Z,4080.00
2018-10-16T12:17:22.580Z,3912.00
2018-10-16T12:18:22.838Z,3812.00
2018-10-16T12:19:22.936Z,3744.00
2018-10-16T12:20:23.094Z,3684.00
2018-10-16T12:21:23.268Z,3632.00
2018-10-16T12:22:23.446Z,3620.00
2018-10-16T12:23:23.640Z,3596.00
2018-10-16T12:24:23.818Z,3552.00
2018-10-16T12:25:23.999Z,3488.00
2018-10-16T12:26:24.180Z,3452.00
2018-10-16T12:27:24.364Z,3436.00
2018-10-16T12:28:24.544Z,3412.00
2018-10-16T12:29:24.721Z,3376.00
2018-10-16T12:30:24.904Z,3320.00
2018-10-16T12:31:25.110Z,3208.00
2018-10-16T12:32:25.347Z,3076.00
2018-10-16T12:33:25.412Z,2896.00
2018-10-16T12:34:25.602Z,2704.00
2018-10-16T12:35:25.850Z,2524.00
2018-10-16T12:36:25.903Z,2348.00
2018-10-16T12:37:26.078Z,2300.00
2018-10-16T12:38:27.805Z,2700.00